Kassel-Calden Airport

EDVK · Hessen, Deutschland

METAR-Geschichte EDVK · Flughafen Kassel-Calden

Unten siehst du die METARs der letzten paar Tage. Wähle ein Jahr, um ältere METARs ab dem Jahr 2007 zu durchsuchen.

29. Mai 2024

Uhrzeit Code Wetter Temp. Sichtweite Wolkendecke Wind METAR/SPECI
12:50
M
17 °C 10 km+ 2.000 ft 190° 190° 13 kt METAR EDVK 291050Z 19013KT 160V230 9999 BKN020 17/12 Q1011
12:50
M
17 °C 10 km+ 2.000 ft 190° 190° 13 kt METAR EDVK 291050Z 19013KT 160V230 9999 BKN020 17/12 Q1011
12:20
V
17 °C 10 km+ - 190° 190° 12 kt METAR EDVK 291020Z 19012KT 140V220 9999 SCT020 17/13 Q1011
11:50
V
15 °C 10 km+ - 190° 190° 10 kt METAR EDVK 290950Z 19010KT 160V220 9999 -RA FEW021 15/12 Q1011
11:20
V
16 °C 10 km+ - 200° 200° 11 kt METAR EDVK 290920Z 20011KT 160V220 9999 -RA FEW020 16/12 Q1011
10:50
M
15 °C 10 km+ 2.200 ft 190° 190° 10 kt METAR EDVK 290850Z 19010KT 160V220 9999 -RA BKN022 15/12 Q1012
10:20
V
16 °C 10 km+ 3.600 ft 190° 190° 13 kt METAR EDVK 290820Z 19013KT 9999 -RA SCT020 BKN036 16/12 Q1012
09:50
V
15 °C 10 km+ 3.700 ft 180° 180° 10 kt METAR EDVK 290750Z 18010KT 150V210 9999 FEW019 BKN037 15/12 Q1012
09:20
M
15 °C 10 km+ 2.800 ft 190° 190° 10 kt METAR EDVK 290720Z 19010KT 140V210 9999 SCT018 BKN028 15/12 Q1012
08:50
V
15 °C 10 km+ - 190° 190° 9 kt METAR EDVK 290650Z 19009KT 160V230 9999 SCT032 15/12 Q1012
08:20
V
15 °C 10 km+ - 190° 190° 10 kt METAR EDVK 290620Z 19010KT 160V220 9999 SCT032 15/11 Q1012
07:50
V
14 °C 10 km+ - 200° 200° 11 kt METAR EDVK 290550Z 20011KT 9999 -RA NSC 14/11 Q1013
07:20
V
14 °C 10 km+ - 190° 190° 10 kt METAR EDVK 290520Z 19010KT 160V220 9999 FEW032 SCT042 14/10 Q1013
06:50
V
15 °C 10 km+ 8.800 ft 180° 180° 7 kt METAR EDVK 290450Z AUTO 18007KT 150V220 9999 // FEW031/// SCT061/// BKN088/// 15/10 Q1013
06:20
V
15 °C 10 km+ 9.200 ft 180° 180° 4 kt METAR EDVK 290420Z AUTO 18004KT 140V240 9999 // FEW073/// BKN092/// BKN120/// 15/10 Q1013
05:50
V
14 °C 10 km+ 6.600 ft 180° 180° 7 kt METAR EDVK 290350Z AUTO 18007KT 150V210 9999 // FEW053/// BKN066/// BKN075/// 14/10 Q1013
05:20
V
14 °C 10 km+ 6.600 ft 190° 190° 8 kt METAR EDVK 290320Z AUTO 19008KT 160V220 9999 // FEW048/// BKN066/// 14/10 Q1013
04:50
V
15 °C 10 km+ 4.700 ft 200° 200° 6 kt METAR EDVK 290250Z AUTO 20006KT 160V240 9999 // BKN047/// BKN074/// 15/09 Q1013
04:20
V
15 °C 10 km+ 5.500 ft 200° 200° 6 kt METAR EDVK 290220Z AUTO 20006KT 9999 // FEW042/// BKN055/// BKN071/// 15/09 Q1014
03:50
V
15 °C 10 km+ 5.900 ft 210° 210° 8 kt METAR EDVK 290150Z AUTO 21008KT 180V240 9999 // BKN059/// 15/09 Q1014
03:20
V
15 °C 10 km+ 5.600 ft 200° 200° 9 kt METAR EDVK 290120Z AUTO 20009KT 9999 // BKN056/// 15/08 Q1014
02:50
V
15 °C 10 km+ 7.100 ft 200° 200° 7 kt METAR EDVK 290050Z AUTO 20007KT 170V230 9999 // SCT058/// BKN071/// 15/08 Q1014
02:20
V
15 °C 10 km+ 5.800 ft 200° 200° 9 kt METAR EDVK 290020Z AUTO 20009KT 9999 // FEW036/// BKN058/// 15/08 Q1014
01:50
V
15 °C 10 km+ 5.900 ft 190° 190° 8 kt METAR EDVK 282350Z AUTO 19008KT 160V220 9999 // SCT037/// BKN059/// 15/08 Q1015
01:20
V
15 °C 10 km+ 4.100 ft 180° 180° 7 kt METAR EDVK 282320Z AUTO 18007KT 150V210 9999 // BKN041/// 15/08 Q1015
00:50
V
14 °C 10 km+ 4.600 ft 170° 170° 5 kt METAR EDVK 282250Z AUTO 17005KT 130V220 9999 // OVC046/// 14/08 Q1015
00:20
V
15 °C 10 km+ 5.200 ft 160° 160° 5 kt METAR EDVK 282220Z AUTO 16005KT 130V210 9999 // BKN052/// BKN077/// 15/08 Q1016

28. Mai 2024

Uhrzeit Code Wetter Temp. Sichtweite Wolkendecke Wind METAR/SPECI
23:50
V
14 °C 10 km+ 6.300 ft 150° 150° 7 kt METAR EDVK 282150Z AUTO 15007KT 9999 // BKN063/// BKN082/// 14/08 Q1016
23:20
V
15 °C 10 km+ 6.700 ft 150° 150° 7 kt METAR EDVK 282120Z AUTO 15007KT 9999 // BKN067/// 15/08 Q1016
22:50
V
15 °C 10 km+ - 150° 150° 5 kt METAR EDVK 282050Z AUTO 15005KT 130V190 9999 // SCT064/// 15/08 Q1016
22:20
V
15 °C 10 km+ 7.700 ft 150° 150° 5 kt METAR EDVK 282020Z AUTO 15005KT 9999 // SCT065/// BKN077/// 15/08 Q1016
21:50
V
15 °C 10 km+ 14.000 ft 160° 160° 5 kt METAR EDVK 281950Z AUTO 16005KT 9999 // SCT086/// BKN140/// 15/08 Q1017
21:20
V
15 °C 10 km+ - 190° 190° 3 kt METAR EDVK 281920Z 19003KT CAVOK 15/08 Q1017
20:50
V
16 °C 10 km+ - 200° 200° 5 kt METAR EDVK 281850Z 20005KT CAVOK 16/07 Q1017
20:20
V
16 °C 10 km+ - 200° 200° 6 kt METAR EDVK 281820Z 20006KT CAVOK 16/06 Q1017
19:50
V
17 °C 10 km+ - 190° 190° 7 kt METAR EDVK 281750Z 19007KT 160V230 CAVOK 17/07 Q1017
19:20
V
17 °C 10 km+ - 190° 190° 7 kt METAR EDVK 281720Z 19007KT 150V210 CAVOK 17/07 Q1016
18:50
V
17 °C 10 km+ - 210° 210° 8 kt METAR EDVK 281650Z 21008KT 180V250 CAVOK 17/07 Q1017
18:20
V
18 °C 10 km+ - 210° 210° 10 kt METAR EDVK 281620Z 21010KT 180V250 CAVOK 18/06 Q1017
17:50
V
17 °C 10 km+ - 190° 190° 7 kt METAR EDVK 281550Z 19007KT 150V230 CAVOK 17/05 Q1017
17:20
V
18 °C 10 km+ - 220° 220° 6 kt METAR EDVK 281520Z 22006KT 160V280 CAVOK 18/06 Q1017
16:50
V
17 °C 10 km+ - 230° 230° 8 kt METAR EDVK 281450Z 23008KT 200V270 CAVOK 17/06 Q1017
16:20
V
17 °C 10 km+ - 200° 200° 7 kt METAR EDVK 281420Z 20007KT 140V250 CAVOK 17/05 Q1018
15:50
V
16 °C 10 km+ - 250° 250° 9 kt METAR EDVK 281350Z 25009KT 210V270 CAVOK 16/05 Q1018
15:20
V
16 °C 10 km+ - 250° 250° 9 kt METAR EDVK 281320Z 25009KT 220V290 CAVOK 16/05 Q1018
14:50
V
17 °C 10 km+ - 220° 220° 8 kt METAR EDVK 281250Z 22008KT 170V290 CAVOK 17/05 Q1018
14:20
V
17 °C 10 km+ - 220° 220° 8 kt METAR EDVK 281220Z 22008KT 160V300 CAVOK 17/04 Q1018
13:50
V
16 °C 10 km+ - 220° 220° 8 kt METAR EDVK 281150Z 22008KT 170V290 9999 FEW045 16/05 Q1018
13:20
V
16 °C 10 km+ - Var Var 4 kt METAR EDVK 281120Z VRB04KT 9999 SCT039 16/07 Q1018
12:50
V
15 °C 10 km+ - 210° 210° 8 kt METAR EDVK 281050Z 21008KT 160V250 9999 SCT038 15/07 Q1019
12:20
V
15 °C 10 km+ - 250° 250° 6 kt METAR EDVK 281020Z 25006KT 180V280 9999 SCT030 15/07 Q1019
11:50
V
14 °C 10 km+ - 260° 260° 9 kt METAR EDVK 280950Z 26009KT 9999 SCT028 14/08 Q1019
11:20
V
13 °C 10 km+ - 270° 270° 6 kt METAR EDVK 280920Z 27006KT 240V300 9999 SCT025 13/08 Q1019
10:50
V
14 °C 10 km+ - 280° 280° 8 kt METAR EDVK 280850Z 28008KT 250V310 9999 SCT023 14/09 Q1019
10:20
V
13 °C 10 km+ - 270° 270° 8 kt METAR EDVK 280820Z 27008KT 250V310 9999 SCT021 13/08 Q1019
09:50
M
13 °C 10 km+ 2.300 ft 270° 270° 10 kt METAR EDVK 280750Z 27010KT 9999 FEW020 BKN023 13/08 Q1018
09:20
V
13 °C 10 km+ - 270° 270° 9 kt METAR EDVK 280720Z 27009KT 9999 SCT020 SCT036 13/09 Q1018
08:50
M
13 °C 10 km+ 1.900 ft 280° 280° 10 kt METAR EDVK 280650Z 28010KT 9999 BKN019 13/09 Q1018
08:20
V
12 °C 10 km+ - 260° 260° 9 kt METAR EDVK 280620Z 26009KT 9999 FEW022 SCT038 12/09 Q1018
07:50
V
12 °C 10 km+ - 270° 270° 7 kt METAR EDVK 280550Z 27007KT 9999 FEW015 SCT038 12/09 Q1017
07:20
V
12 °C 10 km+ - 270° 270° 6 kt METAR EDVK 280520Z 27006KT 230V290 9999 FEW015 SCT043 12/10 Q1017
06:50
V
11 °C 10 km+ 3.100 ft 280° 280° 9 kt METAR EDVK 280450Z AUTO 28009KT 9999 // FEW018/// BKN031/// BKN042/// 11/09 Q1017
06:20
M
11 °C 10 km+ 2.700 ft 290° 290° 7 kt METAR EDVK 280420Z AUTO 29007KT 260V330 9999 // FEW012/// BKN027/// BKN054/// 11/10 Q1017
05:50
V
11 °C 10 km+ 4.200 ft 290° 290° 6 kt METAR EDVK 280350Z AUTO 29006KT 9999 // FEW010/// SCT016/// BKN042/// 11/10 Q1017
05:20
M
12 °C 10 km+ 2.600 ft 290° 290° 8 kt METAR EDVK 280320Z AUTO 29008KT 9999 // FEW017/// SCT023/// BKN026/// 12/10 Q1017
04:50
V
12 °C 10 km+ 3.200 ft 290° 290° 8 kt METAR EDVK 280250Z AUTO 29008KT 260V320 9999 // FEW012/// SCT024/// BKN032/// 12/11 Q1017
04:20
V
12 °C 10 km+ - 260° 260° 4 kt METAR EDVK 280220Z AUTO 26004KT 9999 // SCT015/// SCT031/// 12/11 Q1016
03:50
V
12 °C 10 km+ 3.500 ft 270° 270° 7 kt METAR EDVK 280150Z AUTO 27007KT 9999 // FEW009/// SCT016/// BKN035/// 12/11 Q1016
03:20
V
12 °C 8 km 3.600 ft 260° 260° 3 kt METAR EDVK 280120Z AUTO 26003KT 8000 // FEW009/// SCT026/// BKN036/// 12/12 Q1016
02:50
M
12 °C 10 km+ 3.000 ft 250° 250° 4 kt METAR EDVK 280050Z AUTO 25004KT 9999 // FEW010/// SCT018/// BKN030/// 12/11 Q1016
02:20
V
12 °C 10 km+ - 250° 250° 5 kt METAR EDVK 280020Z AUTO 25005KT 9999 // FEW011/// SCT017/// 12/11 Q1016
01:50
V
12 °C 10 km+ - 260° 260° 4 kt METAR EDVK 272350Z AUTO 26004KT 9999 // FEW110/// 12/12 Q1016
01:20
V
12 °C 10 km+ - 250° 250° 6 kt METAR EDVK 272320Z AUTO 25006KT 9999 // SCT110/// 12/11 Q1016
00:50
V
12 °C 10 km+ - 250° 250° 5 kt METAR EDVK 272250Z AUTO 25005KT 9999 // NCD 12/11 Q1016
00:20
V
13 °C 10 km+ - 270° 270° 6 kt METAR EDVK 272220Z AUTO 27006KT 9999 // NCD 13/12 Q1016

27. Mai 2024

Uhrzeit Code Wetter Temp. Sichtweite Wolkendecke Wind METAR/SPECI
23:50
V
14 °C 10 km+ - 220° 220° 2 kt METAR EDVK 272150Z AUTO 22002KT 9999 // FEW140/// 14/12 Q1016
23:20
V
14 °C 10 km+ - 270° 270° 2 kt METAR EDVK 272120Z AUTO 27002KT 9999 // SCT100/// 14/12 Q1016
22:50
V
14 °C 10 km+ - 360° 360° 0 kt METAR EDVK 272050Z AUTO 00000KT 9999 // FEW063/// 14/12 Q1016
22:20
V
14 °C 10 km+ - 290° 290° 6 kt METAR EDVK 272020Z AUTO 29006KT 260V320 9999 // FEW013/// SCT057/// 14/11 Q1016
21:50
V
15 °C 10 km+ 4.500 ft 300° 300° 8 kt METAR EDVK 271950Z AUTO 30008KT 270V330 9999 // FEW016/// SCT033/// BKN045/// 15/13 Q1016
21:20
V
16 °C 10 km+ - 290° 290° 7 kt METAR EDVK 271920Z 29007KT 260V320 9999 SCT046 16/12 Q1016
20:50
V
16 °C 10 km+ - 290° 290° 10 kt METAR EDVK 271850Z 29010KT 9999 SCT045 16/12 Q1015
20:20
V
16 °C 10 km+ - 290° 290° 7 kt METAR EDVK 271820Z 29007KT 260V330 CAVOK 16/12 Q1015
19:50
V
17 °C 10 km+ - 280° 280° 6 kt METAR EDVK 271750Z 28006KT CAVOK 17/12 Q1015
19:20
V
17 °C 10 km+ - 300° 300° 7 kt METAR EDVK 271720Z 30007KT 270V330 CAVOK 17/12 Q1015
18:50
V
18 °C 10 km+ - 280° 280° 7 kt METAR EDVK 271650Z 28007KT 260V320 CAVOK 18/12 Q1015
18:20
V
19 °C 10 km+ - 280° 280° 10 kt METAR EDVK 271620Z 28010KT CAVOK 19/11 Q1015
17:50
V
21 °C 10 km+ - 250° 250° 6 kt METAR EDVK 271550Z 25006KT 230V290 CAVOK 21/10 Q1015
17:20
V
21 °C 10 km+ - 240° 240° 4 kt METAR EDVK 271520Z 24004KT 220V280 CAVOK 21/10 Q1015
16:50
V
22 °C 10 km+ - Var Var 2 kt METAR EDVK 271450Z VRB02KT CAVOK 22/09 Q1015
16:20
V
22 °C 10 km+ - 270° 270° 6 kt METAR EDVK 271420Z 27006KT 210V320 CAVOK 22/09 Q1015
15:50
V
21 °C 10 km+ - 230° 230° 5 kt METAR EDVK 271350Z 23005KT CAVOK 21/09 Q1016
15:20
V
21 °C 10 km+ - 270° 270° 5 kt METAR EDVK 271320Z 27005KT 210V300 CAVOK 21/08 Q1016
14:50
V
22 °C 10 km+ - 290° 290° 6 kt METAR EDVK 271250Z 29006KT 240V340 CAVOK 22/07 Q1016
14:20
V
20 °C 10 km+ - 270° 270° 8 kt METAR EDVK 271220Z 27008KT 9999 SCT050TCU 20/09 Q1016
13:50
V
22 °C 10 km+ - 240° 240° 7 kt METAR EDVK 271150Z 24007KT 180V290 9999 VCSH SCT050TCU 22/09 Q1016
13:20
V
22 °C 10 km+ - 210° 210° 8 kt METAR EDVK 271120Z 21008KT 160V320 9999 VCSH SCT040TCU 22/11 Q1017
12:50
V
20 °C 10 km+ - 230° 230° 6 kt METAR EDVK 271050Z 23006KT 180V260 9999 SCT046TCU 20/11 Q1017
12:20
V
20 °C 10 km+ - Var Var 7 - 17 kt METAR EDVK 271020Z VRB07G17KT 9999 SCT041TCU 20/10 Q1017
11:50
V
19 °C 10 km+ - 290° 290° 7 kt METAR EDVK 270950Z 29007KT 250V320 9999 SCT030TCU 19/11 Q1017
11:20
V
20 °C 10 km+ - Var Var 3 kt METAR EDVK 270920Z VRB03KT 9999 FEW029 SCT039 20/11 Q1017
10:50
V
20 °C 10 km+ - Var Var 3 kt METAR EDVK 270850Z VRB03KT 9999 SCT032 20/12 Q1017
10:20
V
19 °C 10 km+ - 180° 180° 3 kt METAR EDVK 270820Z 18003KT 130V260 9999 FEW030 19/11 Q1017
09:50
V
18 °C 10 km+ - Var Var 3 kt METAR EDVK 270750Z VRB03KT 9999 FEW028 18/11 Q1018
09:20
V
17 °C 10 km+ - Var Var 2 kt METAR EDVK 270720Z VRB02KT 9999 FEW012 17/13 Q1018
08:50
V
16 °C 10 km+ - 090° 090° 4 kt METAR EDVK 270650Z 09004KT 060V120 9999 FEW012 16/13 Q1018
08:20
V
16 °C 10 km+ - Var Var 2 kt METAR EDVK 270620Z VRB02KT 9999 FEW012 16/12 Q1018
07:50
V
16 °C 10 km+ - Var Var 2 kt METAR EDVK 270550Z VRB02KT CAVOK 16/13 Q1018
Eine Änderung melden